Reagan, Texas
Current Conditions -  °F | °C
As of 8:15 PM on Sunday 25 Jan 2015 (Local Time) from KT35 Reporting Station
Clear Clear  
Wind Chill: 53°   Ceiling: Unl
Heat Index: 53°   Visibility: 10mi
Dew Point: 33°   Wind: 8mph
Humidity: 45%   Direction: 320°NW
Pressure: 30.16"   Gusts: NA
Location:  31.22°N, 96.79°W
Report Text: KT35 260215Z AUTO 32007KT 10SM CLR 12/00 A3016 RMK AO2 T01190004
Loading
Personal Weather Stations






























Interactive Weather Map New forecast layout! Learn more

10-Day Weather Forecast

Advertisements
Track Severe Weather on mobile